Time;durP1;ratioP1;P1;durP2;ratioP2;P2;SDS_P1;SDS_P2;PMS_P1;PMS_P2;Temp;Humidity;BMP_temperature;BMP_pressure;BME280_temperature;BME280_humidity;BME280_pressure;Samples;Min_cycle;Max_cycle;Signal;HPM_P1;HPM_P2
2024/04/16 00:02:00;;;;;;;1.93;0.80;;;;;;;9.40;57.74;95534.22;5370017;26;20268;-71
2024/04/16 00:04:25;;;;;;;2.30;0.93;;;;;;;9.31;57.90;95521.63;5368466;26;20248;-72
2024/04/16 00:06:51;;;;;;;1.43;0.80;;;;;;;9.34;57.83;95513.59;5370383;26;20222;-70
2024/04/16 00:09:16;;;;;;;6.47;3.00;;;;;;;9.20;57.07;95516.09;5370819;26;20692;-72
2024/04/16 00:11:42;;;;;;;2.30;1.00;;;;;;;9.14;56.66;95516.41;5370391;26;20230;-70
2024/04/16 00:14:08;;;;;;;1.73;1.03;;;;;;;9.18;56.18;95510.09;5370160;26;20229;-71
2024/04/16 00:16:33;;;;;;;5.03;2.50;;;;;;;8.94;57.41;95493.91;5368863;26;20856;-70
2024/04/16 00:18:58;;;;;;;2.30;1.50;;;;;;;8.84;58.44;95504.00;5369516;26;20276;-70
2024/04/16 00:21:24;;;;;;;2.83;1.13;;;;;;;8.94;58.02;95506.97;5370014;26;20260;-71
2024/04/16 00:23:49;;;;;;;1.93;1.23;;;;;;;8.88;57.28;95489.81;5369068;26;20615;-70
2024/04/16 00:26:15;;;;;;;2.90;1.40;;;;;;;8.91;57.86;95481.81;5368892;26;20245;-70
2024/04/16 00:28:40;;;;;;;2.63;2.43;;;;;;;8.94;57.99;95476.41;5369698;26;20609;-70
2024/04/16 00:31:05;;;;;;;2.00;1.20;;;;;;;8.85;58.16;95472.50;5369207;26;20651;-69
2024/04/16 00:33:31;;;;;;;2.33;0.90;;;;;;;8.89;57.73;95470.59;5369072;26;20276;-69
2024/04/16 00:35:56;;;;;;;2.70;1.00;;;;;;;8.82;57.89;95464.81;5369231;26;21073;-69
2024/04/16 00:38:22;;;;;;;1.30;0.80;;;;;;;8.75;58.19;95455.59;5368839;26;20303;-72
2024/04/16 00:40:48;;;;;;;2.93;1.30;;;;;;;8.66;58.43;95459.53;5368540;26;20314;-71
2024/04/16 00:43:16;;;;;;;3.73;1.07;;;;;;;8.73;57.93;95470.53;5369023;26;20245;-71
2024/04/16 00:45:52;;;;;;;2.50;1.23;;;;;;;8.66;58.26;95458.69;5369453;26;20689;-71
2024/04/16 00:48:20;;;;;;;2.70;1.10;;;;;;;8.67;58.40;95447.31;5369520;26;20672;-72
2024/04/16 00:50:46;;;;;;;3.30;1.50;;;;;;;8.65;58.23;95444.78;5370221;26;20565;-72
2024/04/16 00:53:13;;;;;;;4.40;1.13;;;;;;;8.68;58.69;95460.31;5369920;26;20448;-70
2024/04/16 00:55:39;;;;;;;6.50;1.53;;;;;;;8.69;58.26;95456.78;5370629;26;20479;-71
2024/04/16 00:58:05;;;;;;;2.93;2.13;;;;;;;8.68;58.96;95457.69;5370625;26;20502;-71
2024/04/16 01:00:30;;;;;;;2.10;1.17;;;;;;;8.55;58.92;95455.78;5377916;26;20267;-71
2024/04/16 01:02:56;;;;;;;4.27;1.20;;;;;;;8.48;58.86;95456.09;5382242;26;20982;-72
2024/04/16 01:05:21;;;;;;;1.90;1.07;;;;;;;8.64;59.00;95450.06;5380746;26;20716;-72
2024/04/16 01:07:47;;;;;;;2.43;0.97;;;;;;;8.56;58.82;95458.31;5383185;26;20249;-72
2024/04/16 01:10:12;;;;;;;3.40;1.60;;;;;;;8.46;60.02;95439.66;5388423;26;20634;-72
2024/04/16 01:12:42;;;;;;;5.83;1.67;;;;;;;8.60;59.34;95446.78;5387396;26;20235;-69
2024/04/16 01:15:07;;;;;;;2.47;1.40;;;;;;;8.51;59.79;95465.56;5374687;26;20284;-69
2024/04/16 01:17:33;;;;;;;1.20;0.80;;;;;;;8.54;60.03;95460.16;5372445;26;20444;-69
2024/04/16 01:19:58;;;;;;;2.17;1.10;;;;;;;8.54;60.25;95452.31;5373307;26;20233;-71
2024/04/16 01:22:24;;;;;;;2.30;0.90;;;;;;;8.56;59.80;95442.63;5372784;26;20229;-71
2024/04/16 01:24:49;;;;;;;1.10;0.80;;;;;;;8.56;59.52;95453.09;5344892;26;20238;-71
2024/04/16 01:27:15;;;;;;;2.10;0.83;;;;;;;8.58;60.03;95426.88;5338043;26;20365;-70
2024/04/16 01:29:41;;;;;;;3.43;1.10;;;;;;;8.56;60.13;95441.78;5339441;26;20409;-71
2024/04/16 01:32:06;;;;;;;1.83;0.80;;;;;;;8.62;60.38;95433.63;5340431;26;20984;-71
2024/04/16 01:34:32;;;;;;;2.50;1.20;;;;;;;8.60;60.00;95414.56;5338947;26;20269;-71
2024/04/16 01:36:57;;;;;;;2.40;1.10;;;;;;;8.61;58.79;95405.78;5342457;26;20222;-71
2024/04/16 01:39:23;;;;;;;2.30;1.10;;;;;;;8.51;59.53;95413.25;5343664;26;20297;-73
2024/04/16 01:41:49;;;;;;;3.50;1.40;;;;;;;8.63;60.01;95430.09;5343687;26;20230;-69
2024/04/16 01:44:14;;;;;;;2.10;1.53;;;;;;;8.52;59.80;95438.47;5343086;26;20281;-70
2024/04/16 01:46:40;;;;;;;1.40;1.10;;;;;;;8.60;60.12;95425.88;5342283;26;20465;-71
2024/04/16 01:49:05;;;;;;;4.07;1.50;;;;;;;8.26;59.78;95414.47;5338038;26;20238;-72
2024/04/16 01:51:31;;;;;;;1.67;1.20;;;;;;;8.28;59.87;95407.41;5338070;26;20269;-71
2024/04/16 01:53:56;;;;;;;1.90;1.10;;;;;;;8.44;59.39;95415.34;5335974;26;21334;-70
2024/04/16 01:56:21;;;;;;;2.07;1.10;;;;;;;8.43;59.67;95413.66;5336032;26;20227;-70
2024/04/16 01:58:47;;;;;;;2.47;1.30;;;;;;;8.33;59.61;95399.31;5336774;26;20348;-71
2024/04/16 02:01:12;;;;;;;2.57;1.53;;;;;;;8.37;59.88;95398.25;5336324;26;20278;-70
2024/04/16 02:03:38;;;;;;;3.23;1.27;;;;;;;8.36;60.12;95400.94;5336925;26;20269;-71
2024/04/16 02:06:05;;;;;;;2.03;1.10;;;;;;;8.50;58.95;95408.94;5336260;26;20234;-71
2024/04/16 02:08:31;;;;;;;2.60;1.23;;;;;;;8.12;59.65;95419.53;5336469;26;20226;-71
2024/04/16 02:10:57;;;;;;;5.53;1.43;;;;;;;8.26;60.04;95403.16;5337122;26;20449;-70
2024/04/16 02:13:26;;;;;;;3.57;1.30;;;;;;;8.17;59.90;95398.41;5337429;26;20497;-70
2024/04/16 02:15:52;;;;;;;3.10;1.10;;;;;;;8.15;60.45;95405.47;5338382;26;20461;-70
2024/04/16 02:18:18;;;;;;;7.37;1.70;;;;;;;8.15;59.58;95385.44;5351135;26;20429;-71
2024/04/16 02:20:43;;;;;;;3.43;1.70;;;;;;;8.30;59.89;95390.81;5354952;26;20264;-70
2024/04/16 02:23:09;;;;;;;1.50;1.00;;;;;;;8.20;59.88;95385.22;5361787;26;20316;-69
2024/04/16 02:25:34;;;;;;;3.73;1.40;;;;;;;8.25;58.75;95375.34;5353483;26;20258;-70
2024/04/16 02:28:00;;;;;;;4.60;1.70;;;;;;;8.35;59.21;95380.97;5337943;26;20265;-71
2024/04/16 02:30:25;;;;;;;4.00;1.57;;;;;;;8.42;58.92;95398.03;5337145;26;20230;-69
2024/04/16 02:32:51;;;;;;;2.93;1.40;;;;;;;8.51;58.32;95397.56;5335115;26;20847;-71
2024/04/16 02:35:16;;;;;;;5.10;1.77;;;;;;;8.27;59.82;95371.75;5335356;26;20230;-71
2024/04/16 02:37:42;;;;;;;3.03;1.30;;;;;;;8.27;58.71;95376.97;5336041;26;20265;-71
2024/04/16 02:40:09;;;;;;;3.60;1.20;;;;;;;8.43;59.17;95381.44;5336410;26;20269;-70
2024/04/16 02:42:37;;;;;;;4.63;1.37;;;;;;;8.25;60.13;95378.81;5336527;26;20918;-70
2024/04/16 02:45:03;;;;;;;1.77;1.30;;;;;;;8.24;60.40;95386.72;5335703;26;20569;-70
2024/04/16 02:47:28;;;;;;;3.60;1.67;;;;;;;8.18;60.48;95382.66;5336607;26;20437;-71
2024/04/16 02:49:54;;;;;;;2.27;1.30;;;;;;;8.29;59.65;95379.47;5336141;26;20219;-70
2024/04/16 02:52:19;;;;;;;4.13;1.17;;;;;;;8.30;59.38;95383.81;5336020;26;20597;-70
2024/04/16 02:54:45;;;;;;;9.80;1.80;;;;;;;8.47;59.14;95380.34;5336445;26;20285;-71
2024/04/16 02:57:10;;;;;;;3.30;1.47;;;;;;;8.33;59.73;95390.63;5337663;26;20218;-69
2024/04/16 02:59:35;;;;;;;4.33;1.70;;;;;;;8.14;59.94;95391.56;5339655;26;20618;-70
2024/04/16 03:02:01;;;;;;;5.77;1.57;;;;;;;8.35;59.84;95378.34;5336157;26;20342;-71
2024/04/16 03:04:26;;;;;;;2.20;1.60;;;;;;;8.36;60.30;95372.19;5335640;26;20374;-70
2024/04/16 03:06:51;;;;;;;2.73;1.00;;;;;;;8.24;60.52;95377.13;5335263;26;20214;-70
2024/04/16 03:09:17;;;;;;;4.37;1.50;;;;;;;8.16;60.81;95392.34;5336035;26;20265;-71
2024/04/16 03:11:42;;;;;;;3.43;1.20;;;;;;;7.98;61.89;95388.88;5336000;26;20269;-70
2024/04/16 03:14:08;;;;;;;4.83;1.40;;;;;;;8.12;60.73;95380.34;5335457;26;20269;-70
2024/04/16 03:16:33;;;;;;;5.40;1.70;;;;;;;8.16;60.95;95375.81;5334149;26;20226;-71
2024/04/16 03:18:59;;;;;;;2.10;1.30;;;;;;;8.14;61.09;95373.28;5335665;26;20306;-71
2024/04/16 03:21:25;;;;;;;2.50;1.33;;;;;;;8.01;61.27;95388.75;5335977;26;21005;-71
2024/04/16 03:23:50;;;;;;;2.77;1.40;;;;;;;8.06;61.39;95389.34;5348760;26;20515;-70
2024/04/16 03:26:16;;;;;;;3.30;1.90;;;;;;;8.10;61.02;95391.81;5368423;26;20241;-70
2024/04/16 03:28:41;;;;;;;4.60;1.97;;;;;;;8.24;60.16;95384.09;5370696;26;20342;-71
2024/04/16 03:31:07;;;;;;;1.83;1.13;;;;;;;8.12;60.14;95396.03;5370822;26;20281;-71
2024/04/16 03:33:33;;;;;;;6.03;1.47;;;;;;;7.82;62.03;95395.81;5370830;26;20268;-70
2024/04/16 03:35:58;;;;;;;2.80;1.20;;;;;;;8.03;60.77;95392.13;5371061;26;20245;-70
2024/04/16 03:38:24;;;;;;;2.30;1.60;;;;;;;8.16;60.13;95405.41;5369033;26;20709;-71
2024/04/16 03:40:55;;;;;;;2.47;1.00;;;;;;;7.87;61.64;95399.03;5369602;26;20272;-70
2024/04/16 03:43:20;;;;;;;2.67;1.20;;;;;;;7.89;61.32;95386.75;5370311;26;20238;-70
2024/04/16 03:45:56;;;;;;;6.57;1.23;;;;;;;7.93;61.34;95388.25;5370052;26;20467;-71
2024/04/16 03:48:23;;;;;;;5.23;1.27;;;;;;;7.87;61.78;95393.81;5370631;26;20264;-69
2024/04/16 03:50:48;;;;;;;2.30;1.30;;;;;;;7.96;61.28;95387.25;5371184;26;20448;-72
2024/04/16 03:53:14;;;;;;;5.13;1.60;;;;;;;7.89;61.71;95396.31;5378199;26;20497;-72
2024/04/16 03:55:39;;;;;;;5.00;1.60;;;;;;;7.75;62.73;95397.03;5378273;26;20242;-72
2024/04/16 03:58:04;;;;;;;2.43;1.30;;;;;;;7.72;62.80;95384.94;5380778;26;20233;-73
2024/04/16 04:03:16;;;;;;;3.77;1.30;;;;;;;7.58;62.82;95380.41;5387071;26;20311;-71
2024/04/16 04:05:45;;;;;;;3.27;1.53;;;;;;;7.62;63.09;95387.16;5380461;26;20464;-71
2024/04/16 04:08:10;;;;;;;3.50;1.60;;;;;;;7.82;61.57;95393.19;5370992;26;21123;-70
2024/04/16 04:10:36;;;;;;;3.17;1.57;;;;;;;7.92;61.70;95409.25;5370465;26;20444;-70
2024/04/16 04:13:02;;;;;;;3.60;1.73;;;;;;;7.59;62.95;95397.75;5368581;26;20259;-71
2024/04/16 04:15:27;;;;;;;10.27;2.10;;;;;;;7.43;64.19;95412.47;5367638;26;20909;-70
2024/04/16 04:17:53;;;;;;;2.80;1.73;;;;;;;7.56;63.91;95423.16;5369358;26;20217;-70
2024/04/16 04:20:18;;;;;;;4.57;1.80;;;;;;;7.48;63.53;95435.72;5368427;26;20326;-71
2024/04/16 04:22:43;;;;;;;2.53;1.40;;;;;;;7.50;63.24;95434.75;5369973;26;20225;-70
2024/04/16 04:25:09;;;;;;;3.60;1.40;;;;;;;7.57;63.20;95425.69;5337194;26;20668;-70
2024/04/16 04:27:34;;;;;;;2.47;1.60;;;;;;;7.47;63.36;95437.50;5336199;26;20214;-71
2024/04/16 04:30:00;;;;;;;3.30;1.40;;;;;;;7.59;63.26;95438.69;5335969;26;20264;-71
2024/04/16 04:32:25;;;;;;;3.00;2.00;;;;;;;7.56;63.32;95429.25;5335903;26;20218;-70
2024/04/16 04:34:51;;;;;;;2.00;1.80;;;;;;;7.55;64.07;95424.09;5333778;26;20710;-69
2024/04/16 04:37:17;;;;;;;3.10;1.60;;;;;;;7.56;64.00;95423.16;5333442;26;20274;-70
2024/04/16 04:39:42;;;;;;;1.93;1.60;;;;;;;7.69;62.63;95419.03;5334305;26;20249;-70
2024/04/16 04:42:07;;;;;;;2.70;1.47;;;;;;;7.72;63.18;95424.09;5332299;26;20685;-71
2024/04/16 04:44:34;;;;;;;2.20;1.50;;;;;;;7.64;63.51;95429.72;5376897;26;20259;-71
2024/04/16 04:46:59;;;;;;;1.57;1.20;;;;;;;7.72;62.66;95418.88;5366138;26;20272;-71
2024/04/16 04:49:25;;;;;;;5.93;1.97;;;;;;;7.91;62.31;95423.22;5372086;26;20468;-71
2024/04/16 04:51:50;;;;;;;3.70;1.60;;;;;;;7.79;62.68;95419.44;5379875;26;20564;-71
2024/04/16 04:54:16;;;;;;;2.97;1.83;;;;;;;7.71;63.03;95427.66;5380291;26;20221;-71
2024/04/16 04:56:41;;;;;;;7.70;1.20;;;;;;;7.54;63.59;95415.41;5381754;26;20221;-70
2024/04/16 04:59:07;;;;;;;2.60;1.40;;;;;;;7.49;64.34;95440.03;5381659;26;20233;-71
2024/04/16 05:01:32;;;;;;;4.80;1.30;;;;;;;7.62;63.27;95448.97;5373957;26;20238;-71
2024/04/16 05:03:58;;;;;;;7.80;1.60;;;;;;;7.64;63.08;95441.94;5367251;26;20290;-69
2024/04/16 05:06:23;;;;;;;2.90;1.50;;;;;;;7.65;63.63;95433.16;5367167;26;20233;-70
2024/04/16 05:08:49;;;;;;;2.10;1.20;;;;;;;7.66;63.78;95434.03;5362332;26;20323;-70
2024/04/16 05:11:14;;;;;;;2.00;1.60;;;;;;;7.48;64.35;95440.97;5352335;26;20597;-66
2024/04/16 05:13:40;;;;;;;6.50;2.17;;;;;;;7.61;64.28;95434.25;5366281;26;20253;-65
2024/04/16 05:16:05;;;;;;;6.13;2.00;;;;;;;7.52;64.96;95439.91;5361625;26;20245;-65
2024/04/16 05:18:30;;;;;;;2.30;1.30;;;;;;;7.69;64.14;95444.31;5356604;26;20312;-66
2024/04/16 05:20:58;;;;;;;2.37;1.33;;;;;;;7.95;63.14;95440.44;5356584;26;20242;-66
2024/04/16 05:23:24;;;;;;;16.30;2.33;;;;;;;7.68;64.44;95440.88;5350532;26;20227;-67
2024/04/16 05:25:56;;;;;;;2.00;1.60;;;;;;;7.71;64.62;95451.16;5360679;26;20570;-65
2024/04/16 05:28:22;;;;;;;3.20;2.30;;;;;;;7.55;64.68;95448.41;5358172;26;20343;-66
2024/04/16 05:30:48;;;;;;;3.03;2.00;;;;;;;7.70;63.91;95446.88;5351184;26;20570;-66
2024/04/16 05:33:13;;;;;;;4.07;1.73;;;;;;;7.63;65.00;95451.53;5366214;26;20233;-67
2024/04/16 05:35:38;;;;;;;3.97;1.60;;;;;;;7.71;64.54;95464.22;5366460;26;20320;-66
2024/04/16 05:38:04;;;;;;;6.57;2.57;;;;;;;7.76;64.10;95454.38;5369666;26;20256;-67
2024/04/16 05:40:30;;;;;;;2.67;1.60;;;;;;;7.71;64.65;95458.16;5367717;26;20717;-66
2024/04/16 05:42:55;;;;;;;12.40;2.73;;;;;;;7.75;63.97;95460.53;5356777;26;20282;-66
2024/04/16 05:45:21;;;;;;;3.63;1.70;;;;;;;7.64;64.52;95468.88;5369134;26;20463;-65
2024/04/16 05:47:46;;;;;;;2.50;1.93;;;;;;;7.71;63.66;95458.16;5368882;26;20401;-66
2024/04/16 05:50:12;;;;;;;2.90;1.40;;;;;;;7.93;62.49;95457.97;5350226;26;20238;-65
2024/04/16 05:52:37;;;;;;;3.20;1.40;;;;;;;8.00;61.98;95467.19;5365407;26;20324;-64
2024/04/16 05:55:04;;;;;;;2.27;1.57;;;;;;;8.01;61.55;95472.34;5359650;26;20378;-68
2024/04/16 05:57:30;;;;;;;7.30;1.70;;;;;;;7.88;61.69;95475.63;5382871;26;20359;-66
2024/04/16 05:59:55;;;;;;;4.20;1.20;;;;;;;7.98;61.80;95476.84;5370860;26;20483;-67
2024/04/16 06:02:21;;;;;;;16.30;2.83;;;;;;;7.80;62.03;95476.00;5379522;26;20234;-65
2024/04/16 06:04:46;;;;;;;2.03;1.73;;;;;;;7.66;62.93;95475.81;5365734;26;20648;-67
2024/04/16 06:07:12;;;;;;;7.10;2.00;;;;;;;7.79;62.53;95476.91;5371906;26;20241;-66
2024/04/16 06:09:37;;;;;;;3.07;1.57;;;;;;;7.77;62.08;95478.72;5366390;26;20225;-67
2024/04/16 06:12:03;;;;;;;3.10;2.90;;;;;;;8.02;61.04;95475.78;5370758;26;20468;-66
2024/04/16 06:14:28;;;;;;;2.53;1.40;;;;;;;7.83;61.84;95481.91;5368550;26;20996;-66
2024/04/16 06:16:54;;;;;;;4.40;1.70;;;;;;;8.00;60.98;95481.09;5367941;26;20705;-65
2024/04/16 06:19:19;;;;;;;2.20;1.50;;;;;;;7.96;61.88;95486.53;5368549;26;20294;-65
2024/04/16 06:21:45;;;;;;;3.57;1.63;;;;;;;7.87;61.88;95487.00;5367595;26;20988;-66
2024/04/16 06:24:10;;;;;;;2.53;1.23;;;;;;;7.97;61.57;95472.56;5362269;26;20268;-65
2024/04/16 06:26:36;;;;;;;3.43;1.40;;;;;;;7.96;61.22;95478.69;5365415;26;20268;-65
2024/04/16 06:29:03;;;;;;;7.63;1.97;;;;;;;8.04;61.06;95484.41;5358411;26;20265;-67
2024/04/16 06:31:28;;;;;;;5.90;1.60;;;;;;;7.95;61.10;95471.78;5360222;26;20804;-67
2024/04/16 06:33:54;;;;;;;7.37;3.13;;;;;;;8.06;60.72;95462.50;5360129;26;20519;-68
2024/04/16 06:36:19;;;;;;;3.57;2.13;;;;;;;8.17;60.02;95475.06;5360654;26;20230;-66
2024/04/16 06:38:45;;;;;;;5.93;1.47;;;;;;;8.24;59.01;95462.50;5371779;26;20237;-67
2024/04/16 06:41:10;;;;;;;3.83;1.13;;;;;;;8.28;58.92;95464.06;5378202;26;20693;-67
2024/04/16 06:43:36;;;;;;;7.80;1.60;;;;;;;8.47;57.89;95469.25;5365509;26;20253;-68
2024/04/16 06:46:02;;;;;;;5.87;1.70;;;;;;;8.40;58.71;95473.09;5363417;26;20387;-67
2024/04/16 06:48:30;;;;;;;6.57;1.63;;;;;;;8.26;58.35;95466.75;5364399;26;21475;-67
2024/04/16 06:50:55;;;;;;;4.90;2.87;;;;;;;8.26;58.58;95461.50;5361577;26;20355;-68
2024/04/16 06:53:21;;;;;;;5.50;2.07;;;;;;;8.24;58.64;95463.38;5358746;26;21137;-68
2024/04/16 06:55:56;;;;;;;3.20;1.33;;;;;;;8.26;58.62;95460.69;5362026;26;20312;-68
2024/04/16 06:58:22;;;;;;;8.57;2.50;;;;;;;8.32;58.66;95465.59;5362686;26;20278;-68
2024/04/16 07:00:47;;;;;;;4.93;2.13;;;;;;;8.41;57.83;95456.47;5366101;26;20456;-68
2024/04/16 07:03:13;;;;;;;2.57;1.30;;;;;;;8.23;57.56;95471.28;5370398;26;20265;-69
2024/04/16 07:05:38;;;;;;;4.87;1.57;;;;;;;8.35;57.21;95462.00;5368642;26;20725;-69
2024/04/16 07:08:04;;;;;;;5.50;2.13;;;;;;;8.36;57.97;95454.09;5360708;26;20250;-67
2024/04/16 07:10:29;;;;;;;2.87;1.63;;;;;;;8.39;57.60;95460.94;5369975;26;20237;-67
2024/04/16 07:12:54;;;;;;;2.53;1.60;;;;;;;8.61;57.21;95451.09;5369445;26;20753;-68
2024/04/16 07:15:20;;;;;;;5.33;1.37;;;;;;;8.51;57.49;95464.72;5358220;26;20245;-68
2024/04/16 07:17:45;;;;;;;3.23;1.97;;;;;;;8.74;56.68;95453.06;5361063;26;20238;-69
2024/04/16 07:20:11;;;;;;;6.40;1.63;;;;;;;8.94;56.08;95452.03;5366010;26;20233;-68
2024/04/16 07:22:36;;;;;;;2.20;1.43;;;;;;;8.93;55.42;95450.31;5365562;26;21094;-67
2024/04/16 07:25:01;;;;;;;3.30;1.50;;;;;;;9.24;54.65;95439.09;5357354;26;20319;-69
2024/04/16 07:27:27;;;;;;;7.60;1.40;;;;;;;9.43;53.78;95444.19;5363308;26;20285;-67
2024/04/16 07:29:52;;;;;;;6.40;1.80;;;;;;;9.88;52.58;95445.16;5359087;26;20815;-67
2024/04/16 07:32:18;;;;;;;6.27;2.00;;;;;;;10.27;51.71;95434.16;5361797;26;20280;-68
2024/04/16 07:34:43;;;;;;;2.43;1.47;;;;;;;10.13;50.57;95428.88;5366228;26;20639;-69
2024/04/16 07:37:09;;;;;;;3.10;1.73;;;;;;;10.47;50.19;95433.03;5363376;26;20238;-68
2024/04/16 07:39:34;;;;;;;7.20;2.03;;;;;;;10.49;47.42;95415.44;5364756;26;20288;-68
2024/04/16 07:41:59;;;;;;;7.70;2.27;;;;;;;10.69;47.78;95421.25;5367590;26;20245;-68
2024/04/16 07:44:25;;;;;;;8.73;1.80;;;;;;;10.95;48.73;95424.94;5361109;26;20727;-70
2024/04/16 07:46:50;;;;;;;7.60;1.47;;;;;;;11.28;48.75;95426.44;5403863;26;20257;-68
2024/04/16 07:49:16;;;;;;;3.23;1.73;;;;;;;11.49;47.39;95419.81;5387740;26;20268;-68
2024/04/16 07:51:42;;;;;;;3.07;1.80;;;;;;;11.88;46.58;95414.75;5380776;26;20245;-68
2024/04/16 07:54:07;;;;;;;3.23;1.40;;;;;;;11.78;46.48;95415.31;5353861;26;20339;-69
2024/04/16 07:56:32;;;;;;;4.53;1.80;;;;;;;11.79;46.22;95424.06;5340705;26;20361;-69
2024/04/16 07:58:58;;;;;;;5.53;1.60;;;;;;;11.77;45.33;95418.06;5362174;26;20241;-68
2024/04/16 08:01:23;;;;;;;2.33;1.43;;;;;;;11.34;45.83;95416.38;5371790;26;20709;-68
2024/04/16 08:03:48;;;;;;;6.73;1.90;;;;;;;11.51;44.67;95419.75;5376971;26;20266;-68
2024/04/16 08:06:14;;;;;;;2.80;1.50;;;;;;;11.27;42.80;95420.34;5369077;26;20233;-68
2024/04/16 08:08:39;;;;;;;4.80;1.53;;;;;;;11.13;43.34;95417.72;5362060;26;20798;-68
2024/04/16 08:11:08;;;;;;;9.77;2.20;;;;;;;11.04;41.00;95413.03;5355346;26;20361;-69
2024/04/16 08:13:34;;;;;;;5.60;1.70;;;;;;;11.19;42.00;95418.16;5366533;26;20229;-68
2024/04/16 08:15:59;;;;;;;6.80;3.10;;;;;;;11.05;41.79;95428.69;5368595;26;21109;-67
2024/04/16 08:18:25;;;;;;;5.63;1.77;;;;;;;10.89;42.17;95422.66;5364411;26;20268;-68
2024/04/16 08:20:50;;;;;;;7.07;1.70;;;;;;;10.79;41.29;95427.63;5366075;26;20249;-68
2024/04/16 08:23:16;;;;;;;3.97;2.10;;;;;;;10.88;40.74;95426.25;5363350;26;20678;-68
2024/04/16 08:25:41;;;;;;;4.33;1.43;;;;;;;10.57;41.12;95428.94;5352476;26;21142;-68
2024/04/16 08:28:06;;;;;;;11.73;2.60;;;;;;;10.79;40.80;95430.25;5364437;26;20241;-68
2024/04/16 08:30:32;;;;;;;7.03;1.70;;;;;;;10.73;40.96;95433.28;5343879;26;20630;-69
2024/04/16 08:32:57;;;;;;;5.50;2.10;;;;;;;10.71;40.65;95424.66;5356637;26;20233;-68
2024/04/16 08:35:27;;;;;;;4.07;1.50;;;;;;;10.73;41.38;95434.09;5346989;26;21117;-66
2024/04/16 08:37:53;;;;;;;2.70;1.73;;;;;;;10.71;41.16;95422.03;5354751;26;20471;-68
2024/04/16 08:40:19;;;;;;;8.00;1.90;;;;;;;10.74;38.83;95413.94;5338726;26;20484;-67
2024/04/16 08:42:45;;;;;;;3.73;1.50;;;;;;;11.07;39.49;95426.81;5359106;26;20288;-68
2024/04/16 08:45:10;;;;;;;4.43;1.80;;;;;;;11.66;37.73;95408.22;5365802;26;20248;-68
2024/04/16 08:47:37;;;;;;;2.53;1.43;;;;;;;11.82;37.11;95398.41;5367145;26;20334;-68
2024/04/16 08:50:04;;;;;;;4.60;1.83;;;;;;;11.81;37.38;95398.50;5353354;26;20233;-67
2024/04/16 08:52:32;;;;;;;2.70;1.20;;;;;;;11.70;36.32;95406.28;5367923;26;20467;-68
2024/04/16 08:54:59;;;;;;;3.73;1.53;;;;;;;11.90;36.80;95403.19;5368312;26;20472;-68
2024/04/16 08:57:27;;;;;;;8.50;1.80;;;;;;;11.84;36.75;95400.97;5368491;26;20519;-67
2024/04/16 08:59:52;;;;;;;5.00;2.07;;;;;;;11.64;35.71;95412.75;5368812;26;20515;-68
2024/04/16 09:02:19;;;;;;;6.20;1.90;;;;;;;11.74;36.00;95408.59;5369392;26;20448;-67
2024/04/16 09:04:47;;;;;;;8.10;1.47;;;;;;;11.81;35.71;95399.38;5368697;26;20237;-68
2024/04/16 09:07:13;;;;;;;6.23;2.60;;;;;;;11.74;35.83;95390.22;5368387;26;20444;-68
2024/04/16 09:09:39;;;;;;;4.13;1.50;;;;;;;12.10;36.34;95385.31;5369037;26;20569;-68
2024/04/16 09:12:04;;;;;;;4.80;1.87;;;;;;;12.26;35.99;95370.19;5367555;26;20514;-67
2024/04/16 09:14:30;;;;;;;2.70;1.43;;;;;;;12.40;35.84;95380.63;5366423;26;20331;-67
2024/04/16 09:16:56;;;;;;;4.30;1.60;;;;;;;12.48;36.60;95380.94;5369206;26;20298;-68
2024/04/16 09:19:26;;;;;;;3.17;1.47;;;;;;;12.36;35.76;95379.13;5369152;26;20912;-68
2024/04/16 09:21:52;;;;;;;2.10;1.27;;;;;;;12.41;35.99;95379.66;5368812;26;20415;-68
2024/04/16 09:24:21;;;;;;;3.07;1.93;;;;;;;12.99;35.21;95388.00;5368123;26;20486;-68
2024/04/16 09:26:46;;;;;;;6.80;1.57;;;;;;;13.07;34.64;95382.19;5369288;26;20557;-69
2024/04/16 09:29:11;;;;;;;11.07;2.60;;;;;;;13.38;34.38;95377.41;5368958;26;20538;-67
2024/04/16 09:31:37;;;;;;;4.90;1.53;;;;;;;13.39;33.91;95371.19;5369038;26;20284;-68
2024/04/16 09:34:06;;;;;;;15.20;3.53;;;;;;;13.08;34.02;95383.88;5368234;26;20269;-68
2024/04/16 09:36:33;;;;;;;10.27;1.43;;;;;;;13.62;33.71;95377.44;5368120;26;21176;-68
2024/04/16 09:38:59;;;;;;;2.90;1.47;;;;;;;13.31;33.94;95372.56;5371871;26;20448;-68
2024/04/16 09:41:27;;;;;;;3.70;1.60;;;;;;;13.38;34.59;95369.53;5372565;26;20533;-68
2024/04/16 09:43:53;;;;;;;5.07;1.80;;;;;;;13.27;34.07;95364.97;5372246;26;20585;-69
2024/04/16 09:46:20;;;;;;;4.70;1.43;;;;;;;13.74;33.50;95355.47;5369720;26;20511;-68
2024/04/16 09:48:47;;;;;;;2.17;1.50;;;;;;;13.80;32.44;95364.72;5371777;26;20285;-68
2024/04/16 09:51:14;;;;;;;3.27;1.60;;;;;;;13.83;32.28;95353.94;5370599;26;20520;-68
2024/04/16 09:53:43;;;;;;;3.43;1.40;;;;;;;13.48;33.65;95333.63;5369083;26;20507;-68
2024/04/16 09:56:09;;;;;;;3.13;1.43;;;;;;;13.50;34.37;95339.63;5371598;26;20534;-68
2024/04/16 09:58:36;;;;;;;2.90;1.37;;;;;;;13.57;33.68;95342.69;5371358;26;20451;-68
2024/04/16 10:01:02;;;;;;;4.73;1.87;;;;;;;13.86;33.07;95348.44;5372051;26;20452;-68
2024/04/16 10:03:30;;;;;;;5.60;1.53;;;;;;;14.19;33.21;95339.81;5371418;26;20479;-66
2024/04/16 10:05:55;;;;;;;6.10;1.40;;;;;;;14.27;32.33;95336.59;5370735;26;20482;-68
2024/04/16 10:08:23;;;;;;;4.93;1.80;;;;;;;14.29;32.60;95332.91;5371239;26;20576;-68
2024/04/16 10:10:49;;;;;;;3.67;1.73;;;;;;;14.43;32.73;95318.63;5371675;26;20284;-67
2024/04/16 10:13:15;;;;;;;4.10;1.30;;;;;;;13.95;32.36;95322.22;5371627;26;20452;-67
2024/04/16 10:15:44;;;;;;;4.70;2.50;;;;;;;14.10;32.34;95324.66;5371627;26;21073;-67
2024/04/16 10:18:10;;;;;;;3.10;2.30;;;;;;;14.00;32.42;95315.78;5371769;26;20669;-68
2024/04/16 10:20:47;;;;;;;7.93;2.73;;;;;;;14.54;31.88;95307.28;5371911;26;20551;-69
2024/04/16 10:23:16;;;;;;;6.93;3.20;;;;;;;14.53;31.99;95311.72;5366670;26;20455;-68
2024/04/16 10:25:53;;;;;;;5.03;2.50;;;;;;;14.64;32.03;95310.06;5337244;26;20462;-67
2024/04/16 10:28:28;;;;;;;2.43;1.50;;;;;;;14.32;31.44;95314.19;5337970;26;20616;-68
2024/04/16 10:31:08;;;;;;;3.57;1.37;;;;;;;14.25;32.82;95304.22;5336080;26;20445;-67
2024/04/16 10:33:39;;;;;;;3.20;1.10;;;;;;;13.90;33.24;95299.78;5337348;26;20464;-68
2024/04/16 10:36:07;;;;;;;4.13;1.17;;;;;;;13.93;32.32;95302.19;5338009;26;20571;-69
2024/04/16 10:38:35;;;;;;;13.33;1.97;;;;;;;13.66;32.16;95289.28;5337932;26;20585;-67
2024/04/16 10:41:01;;;;;;;19.70;2.33;;;;;;;13.36;32.39;95276.56;5338673;26;20800;-69
2024/04/16 10:43:27;;;;;;;20.60;1.90;;;;;;;13.57;32.89;95279.41;5341626;26;20520;-69
2024/04/16 10:45:53;;;;;;;5.80;1.43;;;;;;;13.75;32.99;95281.53;5340963;26;20246;-68
2024/04/16 10:48:22;;;;;;;4.40;1.30;;;;;;;13.54;33.78;95285.75;5340975;26;20460;-68
2024/04/16 10:50:49;;;;;;;2.53;1.27;;;;;;;14.01;32.98;95288.44;5340184;26;20493;-68
2024/04/16 10:53:18;;;;;;;4.03;1.30;;;;;;;14.01;32.71;95280.50;5336431;26;20516;-69
2024/04/16 10:55:44;;;;;;;6.20;1.53;;;;;;;14.22;32.46;95285.97;5336666;26;20583;-69
2024/04/16 10:58:10;;;;;;;9.03;1.60;;;;;;;13.84;32.46;95284.41;5336674;26;20505;-68
2024/04/16 11:00:36;;;;;;;26.20;3.87;;;;;;;13.71;33.30;95293.25;5335895;26;21023;-68
2024/04/16 11:03:02;;;;;;;41.60;5.00;;;;;;;13.44;33.95;95295.25;5336684;26;20546;-68
2024/04/16 11:05:27;;;;;;;6.60;2.90;;;;;;;13.07;34.12;95287.38;5334983;26;20456;-68
2024/04/16 11:07:53;;;;;;;10.70;2.90;;;;;;;13.11;34.42;95302.84;5335066;26;20348;-68
2024/04/16 11:10:19;;;;;;;4.10;1.87;;;;;;;13.08;34.28;95295.16;5334163;26;20745;-68
2024/04/16 11:12:44;;;;;;;4.23;1.53;;;;;;;13.06;34.58;95301.47;5335499;26;20230;-68
2024/04/16 11:15:10;;;;;;;9.93;2.20;;;;;;;12.98;34.89;95293.28;5334281;26;20683;-67
2024/04/16 11:17:35;;;;;;;5.70;1.83;;;;;;;13.06;35.08;95304.13;5335732;26;20273;-69
2024/04/16 11:20:02;;;;;;;2.93;1.30;;;;;;;13.19;34.41;95281.22;5335514;26;20222;-68
2024/04/16 11:22:27;;;;;;;7.70;1.40;;;;;;;13.25;34.17;95293.09;5335857;26;20222;-68
2024/04/16 11:24:53;;;;;;;8.80;1.57;;;;;;;13.42;34.13;95281.38;5362164;26;20578;-68
2024/04/16 11:27:19;;;;;;;3.90;1.17;;;;;;;13.28;34.81;95283.22;5370026;26;20230;-68
2024/04/16 11:29:49;;;;;;;2.00;1.20;;;;;;;13.28;34.79;95280.59;5370407;26;20821;-68
2024/04/16 11:32:15;;;;;;;5.00;3.00;;;;;;;13.46;34.65;95274.91;5371788;26;20259;-68
2024/04/16 11:34:48;;;;;;;2.90;1.43;;;;;;;13.41;34.57;95269.16;5380195;26;20573;-68
2024/04/16 11:37:14;;;;;;;2.97;1.40;;;;;;;13.50;34.60;95274.59;5372618;26;20534;-68